This is the latest recevied weather packets stored in our database for station/object LRTM. If no packets are shown the sender has not sent any weather packets the latest 10 day(s).
| Time | Temp. | Humidity | Pressure | Rain* | Wind** | Luminosity | Snow |
|---|---|---|---|---|---|---|---|
| 1777437206 | 6.11° C | 81% | 1019 hPa | - | - | - | - |
| 1777436307 | 5° C | 81% | 1019 hPa | - | - | - | - |
| 1777435406 | 5° C | 81% | 1019 hPa | - | - | - | - |
| 1777434506 | 3.89° C | 81% | 1018 hPa | - | - | - | - |
| 1777433606 | 3.89° C | 81% | 1018 hPa | - | - | - | - |
| 1777432711 | 6.11° C | 76% | 1018 hPa | - | - | - | - |
| 1777431806 | 6.11° C | 76% | 1018 hPa | - | - | - | - |
| 1777430906 | 6.11° C | 81% | 1019 hPa | - | - | - | - |
| 1777430006 | 6.11° C | 81% | 1019 hPa | - | - | - | - |
| 1777429107 | 7.22° C | 76% | 1019 hPa | - | - | - | - |
| 1777428206 | 7.22° C | 76% | 1019 hPa | - | - | - | - |
| 1777427306 | 7.78° C | 62% | 1019 hPa | - | - | - | - |
| 1777426406 | 7.78° C | 62% | 1019 hPa | - | - | - | - |
| 1777425506 | 6.11° C | 81% | 1019 hPa | - | - | - | - |
| 1777424607 | 6.11° C | 81% | 1019 hPa | - | - | - | - |
| 1777423706 | 6.11° C | 81% | 1018 hPa | - | - | - | - |
| 1777422806 | 6.11° C | 81% | 1018 hPa | - | - | - | - |
| 1777421907 | 7.22° C | 71% | 1019 hPa | - | - | - | - |
| 1777421006 | 7.22° C | 71% | 1019 hPa | - | - | - | - |
| 1777420106 | 6.11° C | 81% | 1019 hPa | - | - | - | - |
| 1777419206 | 6.11° C | 81% | 1019 hPa | - | - | - | - |
| 1777418306 | 7.22° C | 66% | 1019 hPa | - | - | - | - |
| 1777417406 | 7.22° C | 66% | 1019 hPa | - | - | - | - |
| 1777416508 | 7.78° C | 62% | 1019 hPa | - | - | - | - |
| 1777415606 | 7.78° C | 62% | 1019 hPa | - | - | - | - |
* Rain since midnight (hover to see other rain measurements)
** Current wind speed in m/s (hover to see current wind gust speed)